sensor_id;sensor_type;location;lat;lon;timestamp;temperature;humidity
41678;DHT22;27364;49.026;8.712;2023-05-07T00:00:23;13.10;99.90
41678;DHT22;27364;49.026;8.712;2023-05-07T00:02:49;13.00;99.90
41678;DHT22;27364;49.026;8.712;2023-05-07T00:05:15;13.00;99.90
41678;DHT22;27364;49.026;8.712;2023-05-07T00:07:41;12.90;99.90
41678;DHT22;27364;49.026;8.712;2023-05-07T00:10:07;12.90;99.90
41678;DHT22;27364;49.026;8.712;2023-05-07T00:12:33;13.00;99.90
41678;DHT22;27364;49.026;8.712;2023-05-07T00:15:02;13.00;99.90
41678;DHT22;27364;49.026;8.712;2023-05-07T00:17:29;13.00;99.90
41678;DHT22;27364;49.026;8.712;2023-05-07T00:19:55;13.10;99.90
41678;DHT22;27364;49.026;8.712;2023-05-07T00:22:21;13.10;99.90
41678;DHT22;27364;49.026;8.712;2023-05-07T00:24:46;13.20;99.90
41678;DHT22;27364;49.026;8.712;2023-05-07T00:27:12;13.10;99.90
41678;DHT22;27364;49.026;8.712;2023-05-07T00:29:38;13.10;99.90
41678;DHT22;27364;49.026;8.712;2023-05-07T00:32:03;13.00;99.90
41678;DHT22;27364;49.026;8.712;2023-05-07T00:34:29;13.10;99.90
41678;DHT22;27364;49.026;8.712;2023-05-07T00:36:54;13.10;99.90
41678;DHT22;27364;49.026;8.712;2023-05-07T00:39:20;13.00;99.90
41678;DHT22;27364;49.026;8.712;2023-05-07T00:41:45;13.00;99.90
41678;DHT22;27364;49.026;8.712;2023-05-07T00:44:11;12.90;99.90
41678;DHT22;27364;49.026;8.712;2023-05-07T00:46:37;12.90;99.90
41678;DHT22;27364;49.026;8.712;2023-05-07T00:49:03;12.80;99.90
41678;DHT22;27364;49.026;8.712;2023-05-07T00:51:29;12.90;99.90
41678;DHT22;27364;49.026;8.712;2023-05-07T00:53:55;12.80;99.90
41678;DHT22;27364;49.026;8.712;2023-05-07T00:56:21;12.80;99.90
41678;DHT22;27364;49.026;8.712;2023-05-07T00:58:48;12.80;99.90
41678;DHT22;27364;49.026;8.712;2023-05-07T01:01:13;12.70;99.90
41678;DHT22;27364;49.026;8.712;2023-05-07T01:03:41;12.80;99.90
41678;DHT22;27364;49.026;8.712;2023-05-07T01:06:07;12.80;99.90
41678;DHT22;27364;49.026;8.712;2023-05-07T01:08:34;12.80;99.90
41678;DHT22;27364;49.026;8.712;2023-05-07T01:11:00;12.80;99.90
41678;DHT22;27364;49.026;8.712;2023-05-07T01:13:27;12.70;99.90
41678;DHT22;27364;49.026;8.712;2023-05-07T01:15:53;12.70;99.90
41678;DHT22;27364;49.026;8.712;2023-05-07T01:18:19;12.70;99.90
41678;DHT22;27364;49.026;8.712;2023-05-07T01:20:45;12.70;99.90
41678;DHT22;27364;49.026;8.712;2023-05-07T01:23:11;12.80;99.90
41678;DHT22;27364;49.026;8.712;2023-05-07T01:25:36;12.70;99.90
41678;DHT22;27364;49.026;8.712;2023-05-07T01:28:02;12.70;99.90
41678;DHT22;27364;49.026;8.712;2023-05-07T01:30:28;12.70;99.90
41678;DHT22;27364;49.026;8.712;2023-05-07T01:33:09;12.60;99.90
41678;DHT22;27364;49.026;8.712;2023-05-07T01:35:39;12.60;99.90
41678;DHT22;27364;49.026;8.712;2023-05-07T01:38:06;12.50;99.90
41678;DHT22;27364;49.026;8.712;2023-05-07T01:40:32;12.50;99.90
41678;DHT22;27364;49.026;8.712;2023-05-07T01:42:59;12.40;99.90
41678;DHT22;27364;49.026;8.712;2023-05-07T01:45:25;12.40;99.90
41678;DHT22;27364;49.026;8.712;2023-05-07T01:47:51;12.40;99.90
41678;DHT22;27364;49.026;8.712;2023-05-07T01:50:19;12.40;99.90
41678;DHT22;27364;49.026;8.712;2023-05-07T01:52:45;12.40;99.90
41678;DHT22;27364;49.026;8.712;2023-05-07T01:55:12;12.40;99.90
41678;DHT22;27364;49.026;8.712;2023-05-07T01:57:37;12.40;99.90
41678;DHT22;27364;49.026;8.712;2023-05-07T02:00:03;12.40;99.90
41678;DHT22;27364;49.026;8.712;2023-05-07T02:02:30;12.40;99.90
41678;DHT22;27364;49.026;8.712;2023-05-07T02:04:56;12.40;99.90
41678;DHT22;27364;49.026;8.712;2023-05-07T02:07:21;12.40;99.90
41678;DHT22;27364;49.026;8.712;2023-05-07T02:09:47;12.40;99.90
41678;DHT22;27364;49.026;8.712;2023-05-07T02:12:12;12.40;99.90
41678;DHT22;27364;49.026;8.712;2023-05-07T02:14:38;12.30;99.90
41678;DHT22;27364;49.026;8.712;2023-05-07T02:17:03;12.40;99.90
41678;DHT22;27364;49.026;8.712;2023-05-07T02:19:29;12.40;99.90
41678;DHT22;27364;49.026;8.712;2023-05-07T02:21:54;12.40;99.90
41678;DHT22;27364;49.026;8.712;2023-05-07T02:24:20;12.40;99.90
41678;DHT22;27364;49.026;8.712;2023-05-07T02:26:46;12.30;99.90
41678;DHT22;27364;49.026;8.712;2023-05-07T02:29:11;12.30;99.90
41678;DHT22;27364;49.026;8.712;2023-05-07T02:31:37;12.30;99.90
41678;DHT22;27364;49.026;8.712;2023-05-07T02:34:02;12.30;99.90
41678;DHT22;27364;49.026;8.712;2023-05-07T02:36:29;12.30;99.90
41678;DHT22;27364;49.026;8.712;2023-05-07T02:38:54;12.30;99.90
41678;DHT22;27364;49.026;8.712;2023-05-07T02:41:20;12.40;99.90
41678;DHT22;27364;49.026;8.712;2023-05-07T02:43:46;12.30;99.90
41678;DHT22;27364;49.026;8.712;2023-05-07T02:46:11;12.20;99.90
41678;DHT22;27364;49.026;8.712;2023-05-07T02:48:37;12.20;99.90
41678;DHT22;27364;49.026;8.712;2023-05-07T02:51:03;12.20;99.90
41678;DHT22;27364;49.026;8.712;2023-05-07T02:53:29;12.10;99.90
41678;DHT22;27364;49.026;8.712;2023-05-07T02:55:59;12.20;99.90
41678;DHT22;27364;49.026;8.712;2023-05-07T02:58:25;12.20;99.90
41678;DHT22;27364;49.026;8.712;2023-05-07T03:00:52;12.30;99.90
41678;DHT22;27364;49.026;8.712;2023-05-07T03:03:18;12.30;99.90
41678;DHT22;27364;49.026;8.712;2023-05-07T03:05:43;12.30;99.90
41678;DHT22;27364;49.026;8.712;2023-05-07T03:08:09;12.40;99.90
41678;DHT22;27364;49.026;8.712;2023-05-07T03:10:36;12.50;99.90
41678;DHT22;27364;49.026;8.712;2023-05-07T03:13:02;12.40;99.90
41678;DHT22;27364;49.026;8.712;2023-05-07T03:15:27;12.30;99.90
41678;DHT22;27364;49.026;8.712;2023-05-07T03:17:53;12.20;99.90
41678;DHT22;27364;49.026;8.712;2023-05-07T03:20:18;12.10;99.90
41678;DHT22;27364;49.026;8.712;2023-05-07T03:22:44;12.00;99.90
41678;DHT22;27364;49.026;8.712;2023-05-07T03:25:10;12.00;99.90
41678;DHT22;27364;49.026;8.712;2023-05-07T03:27:36;12.00;99.90
41678;DHT22;27364;49.026;8.712;2023-05-07T03:30:01;12.10;99.90
41678;DHT22;27364;49.026;8.712;2023-05-07T03:32:27;12.10;99.90
41678;DHT22;27364;49.026;8.712;2023-05-07T03:34:52;12.10;99.90
41678;DHT22;27364;49.026;8.712;2023-05-07T03:37:18;12.10;99.90
41678;DHT22;27364;49.026;8.712;2023-05-07T03:39:44;12.00;99.90
41678;DHT22;27364;49.026;8.712;2023-05-07T03:42:09;11.90;99.90
41678;DHT22;27364;49.026;8.712;2023-05-07T03:44:35;11.90;99.90
41678;DHT22;27364;49.026;8.712;2023-05-07T03:47:02;11.80;99.90
41678;DHT22;27364;49.026;8.712;2023-05-07T03:49:27;11.80;99.90
41678;DHT22;27364;49.026;8.712;2023-05-07T03:51:53;11.80;99.90
41678;DHT22;27364;49.026;8.712;2023-05-07T03:54:18;11.70;99.90
41678;DHT22;27364;49.026;8.712;2023-05-07T03:56:44;11.70;99.90
41678;DHT22;27364;49.026;8.712;2023-05-07T03:59:10;11.70;99.90
41678;DHT22;27364;49.026;8.712;2023-05-07T04:01:35;11.70;99.90
41678;DHT22;27364;49.026;8.712;2023-05-07T04:04:01;11.70;99.90
41678;DHT22;27364;49.026;8.712;2023-05-07T04:06:26;11.60;99.90
41678;DHT22;27364;49.026;8.712;2023-05-07T04:08:52;11.70;99.90
41678;DHT22;27364;49.026;8.712;2023-05-07T04:11:18;11.60;99.90
41678;DHT22;27364;49.026;8.712;2023-05-07T04:13:43;11.60;99.90
41678;DHT22;27364;49.026;8.712;2023-05-07T04:16:09;11.60;99.90
41678;DHT22;27364;49.026;8.712;2023-05-07T04:18:35;11.60;99.90
41678;DHT22;27364;49.026;8.712;2023-05-07T04:21:00;11.60;99.90
41678;DHT22;27364;49.026;8.712;2023-05-07T04:23:26;11.50;99.90
41678;DHT22;27364;49.026;8.712;2023-05-07T04:25:51;11.50;99.90
41678;DHT22;27364;49.026;8.712;2023-05-07T04:28:17;11.60;99.90
41678;DHT22;27364;49.026;8.712;2023-05-07T04:30:43;11.60;99.90
41678;DHT22;27364;49.026;8.712;2023-05-07T04:33:08;11.60;99.90
41678;DHT22;27364;49.026;8.712;2023-05-07T04:35:35;11.70;99.90
41678;DHT22;27364;49.026;8.712;2023-05-07T04:38:00;11.70;99.90
41678;DHT22;27364;49.026;8.712;2023-05-07T04:40:26;11.70;99.90
41678;DHT22;27364;49.026;8.712;2023-05-07T04:42:52;11.70;99.90
41678;DHT22;27364;49.026;8.712;2023-05-07T04:45:18;11.70;99.90
41678;DHT22;27364;49.026;8.712;2023-05-07T04:47:44;11.70;99.90
41678;DHT22;27364;49.026;8.712;2023-05-07T04:50:10;11.90;99.90
41678;DHT22;27364;49.026;8.712;2023-05-07T04:52:36;12.10;99.90
41678;DHT22;27364;49.026;8.712;2023-05-07T04:55:01;12.20;99.90
41678;DHT22;27364;49.026;8.712;2023-05-07T04:57:27;12.40;99.90
41678;DHT22;27364;49.026;8.712;2023-05-07T04:59:53;12.50;99.90
41678;DHT22;27364;49.026;8.712;2023-05-07T05:02:19;12.60;99.90
41678;DHT22;27364;49.026;8.712;2023-05-07T05:04:45;12.70;99.90
41678;DHT22;27364;49.026;8.712;2023-05-07T05:07:10;12.80;99.90
41678;DHT22;27364;49.026;8.712;2023-05-07T05:09:36;12.80;99.90
41678;DHT22;27364;49.026;8.712;2023-05-07T05:12:01;12.90;99.90
41678;DHT22;27364;49.026;8.712;2023-05-07T05:14:27;12.80;99.90
41678;DHT22;27364;49.026;8.712;2023-05-07T05:16:52;12.90;99.90
41678;DHT22;27364;49.026;8.712;2023-05-07T05:19:18;12.90;99.90
41678;DHT22;27364;49.026;8.712;2023-05-07T05:21:43;13.00;99.90
41678;DHT22;27364;49.026;8.712;2023-05-07T05:24:09;13.00;99.90
41678;DHT22;27364;49.026;8.712;2023-05-07T05:26:34;13.10;99.90
41678;DHT22;27364;49.026;8.712;2023-05-07T05:29:00;13.10;99.90
41678;DHT22;27364;49.026;8.712;2023-05-07T05:31:25;13.00;99.90
41678;DHT22;27364;49.026;8.712;2023-05-07T05:33:51;13.00;99.90
41678;DHT22;27364;49.026;8.712;2023-05-07T05:36:17;13.00;99.90
41678;DHT22;27364;49.026;8.712;2023-05-07T05:38:42;13.00;99.90
41678;DHT22;27364;49.026;8.712;2023-05-07T05:41:08;13.00;99.90
41678;DHT22;27364;49.026;8.712;2023-05-07T05:43:33;13.10;99.90
41678;DHT22;27364;49.026;8.712;2023-05-07T05:45:59;13.20;99.90
41678;DHT22;27364;49.026;8.712;2023-05-07T05:48:25;13.20;99.90
41678;DHT22;27364;49.026;8.712;2023-05-07T05:50:51;13.20;99.90
41678;DHT22;27364;49.026;8.712;2023-05-07T05:53:16;13.20;99.90
41678;DHT22;27364;49.026;8.712;2023-05-07T05:55:42;13.20;99.90
41678;DHT22;27364;49.026;8.712;2023-05-07T05:58:09;13.40;99.90
41678;DHT22;27364;49.026;8.712;2023-05-07T06:00:34;13.50;99.90
41678;DHT22;27364;49.026;8.712;2023-05-07T06:03:00;13.60;99.90
41678;DHT22;27364;49.026;8.712;2023-05-07T06:05:26;13.80;99.90
41678;DHT22;27364;49.026;8.712;2023-05-07T06:07:51;14.00;99.90
41678;DHT22;27364;49.026;8.712;2023-05-07T06:10:17;14.10;99.90
41678;DHT22;27364;49.026;8.712;2023-05-07T06:12:43;14.30;99.90
41678;DHT22;27364;49.026;8.712;2023-05-07T06:15:09;14.40;99.90
41678;DHT22;27364;49.026;8.712;2023-05-07T06:17:34;14.50;99.90
41678;DHT22;27364;49.026;8.712;2023-05-07T06:20:00;14.60;99.90
41678;DHT22;27364;49.026;8.712;2023-05-07T06:22:25;14.70;99.90
41678;DHT22;27364;49.026;8.712;2023-05-07T06:24:51;14.80;99.90
41678;DHT22;27364;49.026;8.712;2023-05-07T06:27:17;14.80;99.90
41678;DHT22;27364;49.026;8.712;2023-05-07T06:29:42;14.90;99.90
41678;DHT22;27364;49.026;8.712;2023-05-07T06:32:09;15.00;99.90
41678;DHT22;27364;49.026;8.712;2023-05-07T06:34:35;15.10;99.90
41678;DHT22;27364;49.026;8.712;2023-05-07T06:37:00;15.20;99.90
41678;DHT22;27364;49.026;8.712;2023-05-07T06:39:26;15.40;99.90
41678;DHT22;27364;49.026;8.712;2023-05-07T06:41:52;15.40;99.90
41678;DHT22;27364;49.026;8.712;2023-05-07T06:44:17;15.40;99.90
41678;DHT22;27364;49.026;8.712;2023-05-07T06:46:43;15.50;99.90
41678;DHT22;27364;49.026;8.712;2023-05-07T06:49:08;15.50;99.90
41678;DHT22;27364;49.026;8.712;2023-05-07T06:51:34;15.60;99.90
41678;DHT22;27364;49.026;8.712;2023-05-07T06:54:00;15.60;99.90
41678;DHT22;27364;49.026;8.712;2023-05-07T06:56:25;15.70;99.90
41678;DHT22;27364;49.026;8.712;2023-05-07T06:58:51;15.80;99.90
41678;DHT22;27364;49.026;8.712;2023-05-07T07:01:16;15.90;99.90
41678;DHT22;27364;49.026;8.712;2023-05-07T07:03:42;16.20;99.90
41678;DHT22;27364;49.026;8.712;2023-05-07T07:06:07;16.20;99.90
41678;DHT22;27364;49.026;8.712;2023-05-07T07:08:33;16.30;99.90
41678;DHT22;27364;49.026;8.712;2023-05-07T07:10:59;16.40;99.90
41678;DHT22;27364;49.026;8.712;2023-05-07T07:13:25;16.40;99.90
41678;DHT22;27364;49.026;8.712;2023-05-07T07:15:51;16.40;99.90
41678;DHT22;27364;49.026;8.712;2023-05-07T07:18:17;16.50;99.90
41678;DHT22;27364;49.026;8.712;2023-05-07T07:20:42;16.50;99.90
41678;DHT22;27364;49.026;8.712;2023-05-07T07:23:09;16.60;99.90
41678;DHT22;27364;49.026;8.712;2023-05-07T07:25:35;16.60;99.90
41678;DHT22;27364;49.026;8.712;2023-05-07T07:28:01;16.70;99.90
41678;DHT22;27364;49.026;8.712;2023-05-07T07:30:26;16.90;99.90
41678;DHT22;27364;49.026;8.712;2023-05-07T07:32:52;17.00;99.90
41678;DHT22;27364;49.026;8.712;2023-05-07T07:35:18;17.10;99.90
41678;DHT22;27364;49.026;8.712;2023-05-07T07:37:43;17.20;99.90
41678;DHT22;27364;49.026;8.712;2023-05-07T07:40:09;17.30;99.90
41678;DHT22;27364;49.026;8.712;2023-05-07T07:42:35;17.40;99.90
41678;DHT22;27364;49.026;8.712;2023-05-07T07:45:01;17.60;99.90
41678;DHT22;27364;49.026;8.712;2023-05-07T07:47:26;17.70;99.90
41678;DHT22;27364;49.026;8.712;2023-05-07T07:49:52;17.80;99.90
41678;DHT22;27364;49.026;8.712;2023-05-07T07:52:18;17.90;99.90
41678;DHT22;27364;49.026;8.712;2023-05-07T07:54:44;18.00;99.90
41678;DHT22;27364;49.026;8.712;2023-05-07T07:57:10;18.10;99.90
41678;DHT22;27364;49.026;8.712;2023-05-07T07:59:36;18.30;99.90
41678;DHT22;27364;49.026;8.712;2023-05-07T08:02:02;18.40;99.90
41678;DHT22;27364;49.026;8.712;2023-05-07T08:04:27;18.40;99.90
41678;DHT22;27364;49.026;8.712;2023-05-07T08:06:53;18.40;99.90
41678;DHT22;27364;49.026;8.712;2023-05-07T08:09:19;18.40;99.90
41678;DHT22;27364;49.026;8.712;2023-05-07T08:11:45;18.40;99.90
41678;DHT22;27364;49.026;8.712;2023-05-07T08:14:11;18.50;99.90
41678;DHT22;27364;49.026;8.712;2023-05-07T08:16:37;18.40;99.90
41678;DHT22;27364;49.026;8.712;2023-05-07T08:19:02;18.40;99.90
41678;DHT22;27364;49.026;8.712;2023-05-07T08:21:28;18.60;99.90
41678;DHT22;27364;49.026;8.712;2023-05-07T08:23:54;18.70;99.90
41678;DHT22;27364;49.026;8.712;2023-05-07T08:26:19;18.70;99.90
41678;DHT22;27364;49.026;8.712;2023-05-07T08:28:45;18.80;99.90
41678;DHT22;27364;49.026;8.712;2023-05-07T08:31:11;18.90;99.90
41678;DHT22;27364;49.026;8.712;2023-05-07T08:33:36;19.10;99.90
41678;DHT22;27364;49.026;8.712;2023-05-07T08:36:04;19.30;99.90
41678;DHT22;27364;49.026;8.712;2023-05-07T08:38:29;19.60;99.90
41678;DHT22;27364;49.026;8.712;2023-05-07T08:40:55;19.70;99.90
41678;DHT22;27364;49.026;8.712;2023-05-07T08:43:21;19.90;99.90
41678;DHT22;27364;49.026;8.712;2023-05-07T08:45:49;19.90;99.90
41678;DHT22;27364;49.026;8.712;2023-05-07T08:48:17;20.00;99.90
41678;DHT22;27364;49.026;8.712;2023-05-07T08:50:42;20.10;99.90
41678;DHT22;27364;49.026;8.712;2023-05-07T08:53:08;20.00;99.90
41678;DHT22;27364;49.026;8.712;2023-05-07T08:55:34;20.10;99.90
41678;DHT22;27364;49.026;8.712;2023-05-07T08:58:00;20.20;99.90
41678;DHT22;27364;49.026;8.712;2023-05-07T09:00:26;20.20;99.90
41678;DHT22;27364;49.026;8.712;2023-05-07T09:02:53;20.20;99.90
41678;DHT22;27364;49.026;8.712;2023-05-07T09:05:19;20.30;99.90
41678;DHT22;27364;49.026;8.712;2023-05-07T09:07:45;20.40;99.90
41678;DHT22;27364;49.026;8.712;2023-05-07T09:10:11;20.60;99.90
41678;DHT22;27364;49.026;8.712;2023-05-07T09:12:37;20.60;99.90
41678;DHT22;27364;49.026;8.712;2023-05-07T09:15:05;20.50;99.90
41678;DHT22;27364;49.026;8.712;2023-05-07T09:17:31;20.40;99.90
41678;DHT22;27364;49.026;8.712;2023-05-07T09:19:56;20.40;99.90
41678;DHT22;27364;49.026;8.712;2023-05-07T09:22:22;20.70;99.90
41678;DHT22;27364;49.026;8.712;2023-05-07T09:24:48;21.00;99.90
41678;DHT22;27364;49.026;8.712;2023-05-07T09:27:14;21.30;99.90
41678;DHT22;27364;49.026;8.712;2023-05-07T09:29:40;21.60;99.90
41678;DHT22;27364;49.026;8.712;2023-05-07T09:32:06;21.90;99.90
41678;DHT22;27364;49.026;8.712;2023-05-07T09:34:32;22.10;99.90
41678;DHT22;27364;49.026;8.712;2023-05-07T09:37:01;22.30;99.90
41678;DHT22;27364;49.026;8.712;2023-05-07T09:39:39;22.50;99.90
41678;DHT22;27364;49.026;8.712;2023-05-07T09:42:04;22.70;99.90
41678;DHT22;27364;49.026;8.712;2023-05-07T09:44:32;22.60;98.70
41678;DHT22;27364;49.026;8.712;2023-05-07T09:47:00;22.60;99.90
41678;DHT22;27364;49.026;8.712;2023-05-07T09:49:28;22.70;99.90
41678;DHT22;27364;49.026;8.712;2023-05-07T09:51:55;22.70;99.10
41678;DHT22;27364;49.026;8.712;2023-05-07T09:54:22;22.60;98.90
41678;DHT22;27364;49.026;8.712;2023-05-07T09:56:52;22.80;99.90
41678;DHT22;27364;49.026;8.712;2023-05-07T09:59:18;23.00;99.70
41678;DHT22;27364;49.026;8.712;2023-05-07T10:01:45;23.00;97.20
41678;DHT22;27364;49.026;8.712;2023-05-07T10:04:11;22.80;96.60
41678;DHT22;27364;49.026;8.712;2023-05-07T10:06:38;22.80;99.10
41678;DHT22;27364;49.026;8.712;2023-05-07T10:09:04;22.90;98.10
41678;DHT22;27364;49.026;8.712;2023-05-07T10:11:34;23.00;99.40
41678;DHT22;27364;49.026;8.712;2023-05-07T10:14:01;23.20;98.10
41678;DHT22;27364;49.026;8.712;2023-05-07T10:16:29;23.40;96.80
41678;DHT22;27364;49.026;8.712;2023-05-07T10:18:56;23.60;98.80
41678;DHT22;27364;49.026;8.712;2023-05-07T10:21:23;23.70;97.50
41678;DHT22;27364;49.026;8.712;2023-05-07T10:26:36;24.00;93.60
41678;DHT22;27364;49.026;8.712;2023-05-07T10:32:14;23.90;91.90
41678;DHT22;27364;49.026;8.712;2023-05-07T10:34:45;24.00;92.80
41678;DHT22;27364;49.026;8.712;2023-05-07T10:37:12;23.80;91.20
41678;DHT22;27364;49.026;8.712;2023-05-07T10:39:38;23.90;93.50
41678;DHT22;27364;49.026;8.712;2023-05-07T10:42:11;24.30;94.70
41678;DHT22;27364;49.026;8.712;2023-05-07T10:44:37;24.50;93.60
41678;DHT22;27364;49.026;8.712;2023-05-07T10:47:21;24.50;93.60
41678;DHT22;27364;49.026;8.712;2023-05-07T10:54:44;25.00;90.50
41678;DHT22;27364;49.026;8.712;2023-05-07T10:59:59;24.90;91.90
41678;DHT22;27364;49.026;8.712;2023-05-07T11:05:29;25.00;83.20
41678;DHT22;27364;49.026;8.712;2023-05-07T11:08:03;25.10;87.80
41678;DHT22;27364;49.026;8.712;2023-05-07T11:10:48;25.40;90.80
41678;DHT22;27364;49.026;8.712;2023-05-07T11:13:15;25.70;87.60
41678;DHT22;27364;49.026;8.712;2023-05-07T11:15:43;25.80;85.10
41678;DHT22;27364;49.026;8.712;2023-05-07T11:18:10;25.90;83.90
41678;DHT22;27364;49.026;8.712;2023-05-07T11:20:56;26.00;81.70
41678;DHT22;27364;49.026;8.712;2023-05-07T11:26:10;26.10;81.70
41678;DHT22;27364;49.026;8.712;2023-05-07T11:28:37;26.00;78.50
41678;DHT22;27364;49.026;8.712;2023-05-07T11:31:03;26.00;77.20
41678;DHT22;27364;49.026;8.712;2023-05-07T11:33:30;26.00;78.20
41678;DHT22;27364;49.026;8.712;2023-05-07T11:36:03;26.10;79.70
41678;DHT22;27364;49.026;8.712;2023-05-07T11:38:36;26.40;81.20
41678;DHT22;27364;49.026;8.712;2023-05-07T11:41:02;26.70;81.10
41678;DHT22;27364;49.026;8.712;2023-05-07T11:43:30;26.50;77.10
41678;DHT22;27364;49.026;8.712;2023-05-07T11:46:09;26.10;77.30
41678;DHT22;27364;49.026;8.712;2023-05-07T11:48:35;25.90;78.40
41678;DHT22;27364;49.026;8.712;2023-05-07T11:51:02;25.70;77.00
41678;DHT22;27364;49.026;8.712;2023-05-07T11:53:35;25.50;78.20
41678;DHT22;27364;49.026;8.712;2023-05-07T11:56:06;25.30;79.30
41678;DHT22;27364;49.026;8.712;2023-05-07T11:58:33;25.20;78.80
41678;DHT22;27364;49.026;8.712;2023-05-07T12:00:58;25.40;82.20
41678;DHT22;27364;49.026;8.712;2023-05-07T12:03:24;25.40;75.90
41678;DHT22;27364;49.026;8.712;2023-05-07T12:05:49;25.30;78.90
41678;DHT22;27364;49.026;8.712;2023-05-07T12:08:15;25.10;79.30
41678;DHT22;27364;49.026;8.712;2023-05-07T12:10:42;25.10;80.40
41678;DHT22;27364;49.026;8.712;2023-05-07T12:13:20;25.00;81.40
41678;DHT22;27364;49.026;8.712;2023-05-07T12:15:46;24.90;79.70
41678;DHT22;27364;49.026;8.712;2023-05-07T12:18:12;25.00;82.00
41678;DHT22;27364;49.026;8.712;2023-05-07T12:20:39;24.90;80.40
41678;DHT22;27364;49.026;8.712;2023-05-07T12:23:05;24.70;81.00
41678;DHT22;27364;49.026;8.712;2023-05-07T12:25:38;24.50;79.80
41678;DHT22;27364;49.026;8.712;2023-05-07T12:28:05;24.30;83.30
41678;DHT22;27364;49.026;8.712;2023-05-07T12:30:38;24.10;83.50
41678;DHT22;27364;49.026;8.712;2023-05-07T12:33:03;23.90;82.60
41678;DHT22;27364;49.026;8.712;2023-05-07T12:35:30;23.70;84.20
41678;DHT22;27364;49.026;8.712;2023-05-07T12:37:57;23.60;84.90
41678;DHT22;27364;49.026;8.712;2023-05-07T12:40:35;23.40;84.90
41678;DHT22;27364;49.026;8.712;2023-05-07T12:43:00;23.20;85.00
41678;DHT22;27364;49.026;8.712;2023-05-07T12:45:26;23.10;87.90
41678;DHT22;27364;49.026;8.712;2023-05-07T12:47:52;22.90;89.00
41678;DHT22;27364;49.026;8.712;2023-05-07T12:50:17;22.80;90.10
41678;DHT22;27364;49.026;8.712;2023-05-07T12:52:47;22.70;90.10
41678;DHT22;27364;49.026;8.712;2023-05-07T12:55:16;22.50;90.30
41678;DHT22;27364;49.026;8.712;2023-05-07T12:57:45;22.30;91.20
41678;DHT22;27364;49.026;8.712;2023-05-07T13:00:13;22.10;91.40
41678;DHT22;27364;49.026;8.712;2023-05-07T13:02:41;22.00;90.90
41678;DHT22;27364;49.026;8.712;2023-05-07T13:05:07;21.80;91.40
41678;DHT22;27364;49.026;8.712;2023-05-07T13:07:33;21.70;93.10
41678;DHT22;27364;49.026;8.712;2023-05-07T13:09:59;21.60;93.20
41678;DHT22;27364;49.026;8.712;2023-05-07T13:12:24;21.30;95.00
41678;DHT22;27364;49.026;8.712;2023-05-07T13:14:50;21.20;96.90
41678;DHT22;27364;49.026;8.712;2023-05-07T13:17:16;20.80;99.10
41678;DHT22;27364;49.026;8.712;2023-05-07T13:19:43;20.40;99.90
41678;DHT22;27364;49.026;8.712;2023-05-07T13:22:09;19.80;99.90
41678;DHT22;27364;49.026;8.712;2023-05-07T13:24:35;19.20;99.90
41678;DHT22;27364;49.026;8.712;2023-05-07T13:27:00;18.50;99.90
41678;DHT22;27364;49.026;8.712;2023-05-07T13:29:26;18.00;99.90
41678;DHT22;27364;49.026;8.712;2023-05-07T13:31:56;17.60;99.90
41678;DHT22;27364;49.026;8.712;2023-05-07T13:34:22;17.20;99.90
41678;DHT22;27364;49.026;8.712;2023-05-07T13:36:47;16.80;99.90
41678;DHT22;27364;49.026;8.712;2023-05-07T13:39:13;16.60;99.90
41678;DHT22;27364;49.026;8.712;2023-05-07T13:41:38;16.50;99.90
41678;DHT22;27364;49.026;8.712;2023-05-07T13:44:04;16.30;99.90
41678;DHT22;27364;49.026;8.712;2023-05-07T13:46:30;16.10;99.90
41678;DHT22;27364;49.026;8.712;2023-05-07T13:48:56;15.90;99.90
41678;DHT22;27364;49.026;8.712;2023-05-07T13:51:21;15.50;99.90
41678;DHT22;27364;49.026;8.712;2023-05-07T13:53:47;15.20;99.90
41678;DHT22;27364;49.026;8.712;2023-05-07T13:56:13;15.00;99.90
41678;DHT22;27364;49.026;8.712;2023-05-07T13:58:39;14.80;99.90
41678;DHT22;27364;49.026;8.712;2023-05-07T14:01:05;14.70;99.90
41678;DHT22;27364;49.026;8.712;2023-05-07T14:03:30;14.50;99.90
41678;DHT22;27364;49.026;8.712;2023-05-07T14:05:58;14.60;99.90
41678;DHT22;27364;49.026;8.712;2023-05-07T14:08:25;14.50;99.90
41678;DHT22;27364;49.026;8.712;2023-05-07T14:10:51;14.60;99.90
41678;DHT22;27364;49.026;8.712;2023-05-07T14:13:16;14.60;99.90
41678;DHT22;27364;49.026;8.712;2023-05-07T14:15:42;14.60;99.90
41678;DHT22;27364;49.026;8.712;2023-05-07T14:18:12;14.70;99.90
41678;DHT22;27364;49.026;8.712;2023-05-07T14:20:37;14.80;99.90
41678;DHT22;27364;49.026;8.712;2023-05-07T14:23:03;15.00;99.90
41678;DHT22;27364;49.026;8.712;2023-05-07T14:25:29;15.20;99.90
41678;DHT22;27364;49.026;8.712;2023-05-07T14:27:54;15.10;99.90
41678;DHT22;27364;49.026;8.712;2023-05-07T14:30:20;15.10;99.90
41678;DHT22;27364;49.026;8.712;2023-05-07T14:32:47;15.20;99.90
41678;DHT22;27364;49.026;8.712;2023-05-07T14:35:13;15.20;99.90
41678;DHT22;27364;49.026;8.712;2023-05-07T14:37:38;15.20;99.90
41678;DHT22;27364;49.026;8.712;2023-05-07T14:40:05;15.20;99.90
41678;DHT22;27364;49.026;8.712;2023-05-07T14:42:31;15.30;99.90
41678;DHT22;27364;49.026;8.712;2023-05-07T14:44:57;15.40;99.90
41678;DHT22;27364;49.026;8.712;2023-05-07T14:47:22;15.40;99.90
41678;DHT22;27364;49.026;8.712;2023-05-07T14:49:48;15.50;99.90
41678;DHT22;27364;49.026;8.712;2023-05-07T14:52:13;15.50;99.90
41678;DHT22;27364;49.026;8.712;2023-05-07T14:54:39;15.60;99.90
41678;DHT22;27364;49.026;8.712;2023-05-07T14:57:06;15.70;99.90
41678;DHT22;27364;49.026;8.712;2023-05-07T14:59:32;15.80;99.90
41678;DHT22;27364;49.026;8.712;2023-05-07T15:01:57;15.90;99.90
41678;DHT22;27364;49.026;8.712;2023-05-07T15:04:24;16.10;99.90
41678;DHT22;27364;49.026;8.712;2023-05-07T15:06:50;16.20;99.90
41678;DHT22;27364;49.026;8.712;2023-05-07T15:09:15;16.20;99.90
41678;DHT22;27364;49.026;8.712;2023-05-07T15:11:41;16.30;99.90
41678;DHT22;27364;49.026;8.712;2023-05-07T15:14:06;16.40;99.90
41678;DHT22;27364;49.026;8.712;2023-05-07T15:16:32;16.40;99.90
41678;DHT22;27364;49.026;8.712;2023-05-07T15:18:59;16.30;99.90
41678;DHT22;27364;49.026;8.712;2023-05-07T15:21:24;16.30;99.90
41678;DHT22;27364;49.026;8.712;2023-05-07T15:23:52;16.30;99.90
41678;DHT22;27364;49.026;8.712;2023-05-07T15:26:17;16.30;99.90
41678;DHT22;27364;49.026;8.712;2023-05-07T15:28:43;16.30;99.90
41678;DHT22;27364;49.026;8.712;2023-05-07T15:31:08;16.30;99.90
41678;DHT22;27364;49.026;8.712;2023-05-07T15:33:34;16.30;99.90
41678;DHT22;27364;49.026;8.712;2023-05-07T15:36:00;16.30;99.90
41678;DHT22;27364;49.026;8.712;2023-05-07T15:38:26;16.40;99.90
41678;DHT22;27364;49.026;8.712;2023-05-07T15:40:52;16.30;99.90
41678;DHT22;27364;49.026;8.712;2023-05-07T15:43:19;16.40;99.90